Share

Arlington, CO

NE Crowley County (KCOSUGAR1) Elev 4590 ft | 38.45 °N, 103.52 °W | Change Station

Current weather conditions updated 15 seconds ago

Clear
Clear
65.3 °F
Feels Like 65.3 °F
N
5.0
Wind Variable Wind from ESE
Gusts 5.0 mph
Sunrise 6:13 AM
Sunset 7:32 PM
Moon Waning Gibbous

Tomorrow is forecast to be nearly the same temperature as today.

Pressure 29.73 in
Visibility 10.0 miles
Clouds Clear
Dew Point 33 °F
Humidity 30%
Rainfall 0.00 in
Snow Depth Not available.
UV 0 out of 16
Pollen 10.90 out of 12
Air Quality Not available.
Flu Activity Sporadic
METAR KLHX 190153Z AUTO 13010KT 10SM CLR 22/02 A2983 RMK AO2 SLP068 T02170022

More Conditions Fewer Conditions

Pressure 29.73 in
Visibility 10.0 miles
Clouds Clear
Dew Point 33 °F
Humidity 30%
Rainfall 0.00 in
Snow Depth Not available.
UV 0 out of 16
Pollen 10.90 out of 12
Air Quality Not available.
Flu Activity Sporadic
METAR KLHX 190153Z AUTO 13010KT 10SM CLR 22/02 A2983 RMK AO2 SLP068 T02170022

More Conditions Fewer Conditions

10-Day Weather Forecast

Almanac

Astronomy

Apr. 18, 2014 Rise Set
Actual Time 6:13 AM MDT 7:32 PM MDT
Civil Twilight 5:45 AM MDT 8:00 PM MDT
Nautical Twilight 5:12 AM MDT 8:33 PM MDT
Astronomical Twilight 4:38 AM MDT 9:08 PM MDT
Moon 11:18 PM MDT (4/18) 8:39 AM MDT (4/18)
Length of Visible Light 14h 14m
Length of Day
13h 19m
Tomorrow will be 2m 19s longer.
Waning Gibbous, 84% of the Moon is Illuminated
Today
Waning Gibbous
Apr 22
Last Quarter
Apr 29
New
May 6
First Quarter
May 14
Full

Today's Extremes

State Highs State Lows

Community

  • Sunset Silhouettes
    Sunset Silhouettes
  • FL sunset Perico Isle
    FL sunset Perico Isle
  • Cloudy spring view
    Cloudy spring view
  • Old barn
    Old barn
  • What's for Lunch?
    What's for Lunch?

WunderPhotos

Upload Photos

1,702,581 photos uploaded!

WunderBlogs® & News

Nearby

Snow Depth

Station Depth Elevation
Glen Cove 16 in 11460 ft
Apishapa 1 in 10000 ft
Medano Pass 0 in 9620 ft
South Colony 63 in 10800 ft
Ute Creek 31 in 10650 ft

Coastal Water Temperatures

Place Temperature
No Stations Reporting

Earthquake Activity

City Distance Mag. Time & Date
No recent earthquake activity has been reported nearby.
Minimum magnitude displayed is 2.5.

Nearby Weather Stations

Station Location Temp. Dew Point Humidity Wind Precip. Elev Updated Type
NE Crowley County, Sugar City, CO 65.3 °F 33 °F 30% ESE  at  5.0 mph 0.00 in / hr 4590 ft 8:18 PM MDT Rapid Fire

Show More Stations Show Fewer Stations

What do you think?

We're not finished. Please let us know what you like, what you don't like, and what you are still missing.